sensor_id;sensor_type;location;lat;lon;timestamp;temperature;humidity
70294;DHT22;74367;35.280;-77.632;2024-03-08T00:00:24;16.13;90.38
70294;DHT22;74367;35.280;-77.632;2024-03-08T00:02:50;16.12;89.98
70294;DHT22;74367;35.280;-77.632;2024-03-08T00:05:19;16.09;91.13
70294;DHT22;74367;35.280;-77.632;2024-03-08T00:07:45;16.17;93.02
70294;DHT22;74367;35.280;-77.632;2024-03-08T00:10:12;16.16;94.99
70294;DHT22;74367;35.280;-77.632;2024-03-08T00:12:43;16.08;93.96
70294;DHT22;74367;35.280;-77.632;2024-03-08T00:15:15;16.13;96.43
70294;DHT22;74367;35.280;-77.632;2024-03-08T00:17:42;16.13;91.48
70294;DHT22;74367;35.280;-77.632;2024-03-08T00:20:08;16.06;88.29
70294;DHT22;74367;35.280;-77.632;2024-03-08T00:22:35;15.95;88.46
70294;DHT22;74367;35.280;-77.632;2024-03-08T00:25:02;16.06;89.73
70294;DHT22;74367;35.280;-77.632;2024-03-08T00:27:28;15.92;88.51
70294;DHT22;74367;35.280;-77.632;2024-03-08T00:29:59;15.96;91.15
70294;DHT22;74367;35.280;-77.632;2024-03-08T00:32:26;15.95;94.77
70294;DHT22;74367;35.280;-77.632;2024-03-08T00:34:53;16.01;98.16
70294;DHT22;74367;35.280;-77.632;2024-03-08T00:37:23;15.92;96.29
70294;DHT22;74367;35.280;-77.632;2024-03-08T00:39:49;15.79;92.67
70294;DHT22;74367;35.280;-77.632;2024-03-08T00:42:18;15.69;90.71
70294;DHT22;74367;35.280;-77.632;2024-03-08T00:44:44;15.62;89.64
70294;DHT22;74367;35.280;-77.632;2024-03-08T00:47:11;15.66;89.83
70294;DHT22;74367;35.280;-77.632;2024-03-08T00:49:37;15.73;90.54
70294;DHT22;74367;35.280;-77.632;2024-03-08T00:52:06;15.69;90.74
70294;DHT22;74367;35.280;-77.632;2024-03-08T00:54:36;15.54;89.68
70294;DHT22;74367;35.280;-77.632;2024-03-08T00:57:03;15.58;92.01
70294;DHT22;74367;35.280;-77.632;2024-03-08T00:59:29;15.47;91.47
70294;DHT22;74367;35.280;-77.632;2024-03-08T01:01:58;15.50;90.68
70294;DHT22;74367;35.280;-77.632;2024-03-08T01:04:27;15.38;90.48
70294;DHT22;74367;35.280;-77.632;2024-03-08T01:06:57;15.19;91.76
70294;DHT22;74367;35.280;-77.632;2024-03-08T01:09:23;15.04;92.01
70294;DHT22;74367;35.280;-77.632;2024-03-08T01:11:50;15.11;90.81
70294;DHT22;74367;35.280;-77.632;2024-03-08T01:14:16;15.02;92.01
70294;DHT22;74367;35.280;-77.632;2024-03-08T01:16:42;14.87;93.27
70294;DHT22;74367;35.280;-77.632;2024-03-08T01:19:08;14.72;94.10
70294;DHT22;74367;35.280;-77.632;2024-03-08T01:21:34;14.79;91.46
70294;DHT22;74367;35.280;-77.632;2024-03-08T01:24:00;14.69;92.89
70294;DHT22;74367;35.280;-77.632;2024-03-08T01:26:26;14.66;92.68
70294;DHT22;74367;35.280;-77.632;2024-03-08T01:28:52;14.76;91.52
70294;DHT22;74367;35.280;-77.632;2024-03-08T01:31:18;14.87;90.99
70294;DHT22;74367;35.280;-77.632;2024-03-08T01:33:44;14.79;92.12
70294;DHT22;74367;35.280;-77.632;2024-03-08T01:36:11;14.73;91.93
70294;DHT22;74367;35.280;-77.632;2024-03-08T01:38:42;14.75;92.67
70294;DHT22;74367;35.280;-77.632;2024-03-08T01:41:08;14.77;93.13
70294;DHT22;74367;35.280;-77.632;2024-03-08T01:43:35;14.69;91.63
70294;DHT22;74367;35.280;-77.632;2024-03-08T01:46:01;14.59;91.59
70294;DHT22;74367;35.280;-77.632;2024-03-08T01:48:29;14.68;91.70
70294;DHT22;74367;35.280;-77.632;2024-03-08T01:50:56;14.63;93.00
70294;DHT22;74367;35.280;-77.632;2024-03-08T01:53:24;14.31;93.73
70294;DHT22;74367;35.280;-77.632;2024-03-08T01:55:53;14.24;93.17
70294;DHT22;74367;35.280;-77.632;2024-03-08T01:58:20;14.52;92.13
70294;DHT22;74367;35.280;-77.632;2024-03-08T02:00:48;14.65;92.10
70294;DHT22;74367;35.280;-77.632;2024-03-08T02:03:17;14.80;93.17
70294;DHT22;74367;35.280;-77.632;2024-03-08T02:05:43;14.90;92.10
70294;DHT22;74367;35.280;-77.632;2024-03-08T02:08:10;15.00;92.60
70294;DHT22;74367;35.280;-77.632;2024-03-08T02:10:43;15.04;93.75
70294;DHT22;74367;35.280;-77.632;2024-03-08T02:13:12;15.02;91.81
70294;DHT22;74367;35.280;-77.632;2024-03-08T02:15:59;14.82;91.41
70294;DHT22;74367;35.280;-77.632;2024-03-08T02:18:26;14.83;92.31
70294;DHT22;74367;35.280;-77.632;2024-03-08T02:23:20;14.26;93.31
70294;DHT22;74367;35.280;-77.632;2024-03-08T02:25:49;14.42;93.40
70294;DHT22;74367;35.280;-77.632;2024-03-08T02:28:15;14.42;92.88
70294;DHT22;74367;35.280;-77.632;2024-03-08T02:30:41;14.42;93.78
70294;DHT22;74367;35.280;-77.632;2024-03-08T02:33:07;14.63;95.33
70294;DHT22;74367;35.280;-77.632;2024-03-08T02:35:36;14.59;93.28
70294;DHT22;74367;35.280;-77.632;2024-03-08T02:38:05;14.63;93.23
70294;DHT22;74367;35.280;-77.632;2024-03-08T02:40:31;14.51;93.13
70294;DHT22;74367;35.280;-77.632;2024-03-08T02:42:57;14.53;93.11
70294;DHT22;74367;35.280;-77.632;2024-03-08T02:45:26;14.63;92.80
70294;DHT22;74367;35.280;-77.632;2024-03-08T02:47:52;14.62;92.50
70294;DHT22;74367;35.280;-77.632;2024-03-08T02:50:18;14.72;91.87
70294;DHT22;74367;35.280;-77.632;2024-03-08T02:52:44;14.80;94.02
70294;DHT22;74367;35.280;-77.632;2024-03-08T02:55:12;14.82;92.62
70294;DHT22;74367;35.280;-77.632;2024-03-08T02:57:41;14.66;92.97
70294;DHT22;74367;35.280;-77.632;2024-03-08T03:00:07;14.71;92.74
70294;DHT22;74367;35.280;-77.632;2024-03-08T03:02:35;14.71;91.82
70294;DHT22;74367;35.280;-77.632;2024-03-08T03:05:01;14.76;93.08
70294;DHT22;74367;35.280;-77.632;2024-03-08T03:07:32;14.79;92.96
70294;DHT22;74367;35.280;-77.632;2024-03-08T03:10:01;14.72;92.75
70294;DHT22;74367;35.280;-77.632;2024-03-08T03:12:31;14.69;92.66
70294;DHT22;74367;35.280;-77.632;2024-03-08T03:14:59;14.75;93.30
70294;DHT22;74367;35.280;-77.632;2024-03-08T03:17:26;14.72;93.35
70294;DHT22;74367;35.280;-77.632;2024-03-08T03:19:52;14.68;92.04
70294;DHT22;74367;35.280;-77.632;2024-03-08T03:22:19;14.62;91.81
70294;DHT22;74367;35.280;-77.632;2024-03-08T03:24:45;14.62;93.03
70294;DHT22;74367;35.280;-77.632;2024-03-08T03:27:17;14.66;94.23
70294;DHT22;74367;35.280;-77.632;2024-03-08T03:29:43;14.68;92.95
70294;DHT22;74367;35.280;-77.632;2024-03-08T03:32:14;14.59;93.11
70294;DHT22;74367;35.280;-77.632;2024-03-08T03:34:40;14.52;93.46
70294;DHT22;74367;35.280;-77.632;2024-03-08T03:37:10;14.65;93.04
70294;DHT22;74367;35.280;-77.632;2024-03-08T03:39:40;14.65;94.22
70294;DHT22;74367;35.280;-77.632;2024-03-08T03:42:15;14.66;94.50
70294;DHT22;74367;35.280;-77.632;2024-03-08T03:44:48;14.66;94.34
70294;DHT22;74367;35.280;-77.632;2024-03-08T03:47:15;14.71;94.17
70294;DHT22;74367;35.280;-77.632;2024-03-08T03:49:41;14.51;93.43
70294;DHT22;74367;35.280;-77.632;2024-03-08T03:52:08;14.61;94.56
70294;DHT22;74367;35.280;-77.632;2024-03-08T03:54:34;14.52;93.95
70294;DHT22;74367;35.280;-77.632;2024-03-08T03:57:00;14.53;92.70
70294;DHT22;74367;35.280;-77.632;2024-03-08T03:59:26;14.51;93.05
70294;DHT22;74367;35.280;-77.632;2024-03-08T04:01:53;14.56;94.99
70294;DHT22;74367;35.280;-77.632;2024-03-08T04:04:20;14.53;95.89
70294;DHT22;74367;35.280;-77.632;2024-03-08T04:06:46;14.53;94.85
70294;DHT22;74367;35.280;-77.632;2024-03-08T04:09:13;14.36;93.03
70294;DHT22;74367;35.280;-77.632;2024-03-08T04:11:39;14.52;94.07
70294;DHT22;74367;35.280;-77.632;2024-03-08T04:14:06;14.38;93.02
70294;DHT22;74367;35.280;-77.632;2024-03-08T04:16:32;14.44;94.76
70294;DHT22;74367;35.280;-77.632;2024-03-08T04:18:58;14.39;93.73
70294;DHT22;74367;35.280;-77.632;2024-03-08T04:21:24;14.29;93.81
70294;DHT22;74367;35.280;-77.632;2024-03-08T04:23:50;14.26;92.92
70294;DHT22;74367;35.280;-77.632;2024-03-08T04:26:17;14.36;93.69
70294;DHT22;74367;35.280;-77.632;2024-03-08T04:28:43;14.41;93.19
70294;DHT22;74367;35.280;-77.632;2024-03-08T04:31:09;14.29;93.32
70294;DHT22;74367;35.280;-77.632;2024-03-08T04:33:36;14.24;93.85
70294;DHT22;74367;35.280;-77.632;2024-03-08T04:36:02;14.14;91.84
70294;DHT22;74367;35.280;-77.632;2024-03-08T04:38:31;14.31;94.11
70294;DHT22;74367;35.280;-77.632;2024-03-08T04:40:57;14.45;93.37
70294;DHT22;74367;35.280;-77.632;2024-03-08T04:43:24;14.39;93.38
70294;DHT22;74367;35.280;-77.632;2024-03-08T04:45:54;14.56;94.67
70294;DHT22;74367;35.280;-77.632;2024-03-08T04:48:20;14.72;94.56
70294;DHT22;74367;35.280;-77.632;2024-03-08T04:50:46;14.69;94.75
70294;DHT22;74367;35.280;-77.632;2024-03-08T04:53:12;14.76;94.40
70294;DHT22;74367;35.280;-77.632;2024-03-08T04:55:38;14.61;92.44
70294;DHT22;74367;35.280;-77.632;2024-03-08T04:58:06;14.52;93.50
70294;DHT22;74367;35.280;-77.632;2024-03-08T05:00:32;14.53;92.27
70294;DHT22;74367;35.280;-77.632;2024-03-08T05:02:58;14.62;92.74
70294;DHT22;74367;35.280;-77.632;2024-03-08T05:05:24;14.62;93.92
70294;DHT22;74367;35.280;-77.632;2024-03-08T05:07:53;14.63;93.63
70294;DHT22;74367;35.280;-77.632;2024-03-08T05:10:19;14.66;92.50
70294;DHT22;74367;35.280;-77.632;2024-03-08T05:12:46;14.71;93.96
70294;DHT22;74367;35.280;-77.632;2024-03-08T05:15:12;14.68;93.53
70294;DHT22;74367;35.280;-77.632;2024-03-08T05:17:38;14.65;94.17
70294;DHT22;74367;35.280;-77.632;2024-03-08T05:20:06;14.69;92.60
70294;DHT22;74367;35.280;-77.632;2024-03-08T05:22:38;14.61;92.61
70294;DHT22;74367;35.280;-77.632;2024-03-08T05:25:04;14.51;92.62
70294;DHT22;74367;35.280;-77.632;2024-03-08T05:27:30;14.52;91.84
70294;DHT22;74367;35.280;-77.632;2024-03-08T05:29:57;14.58;91.83
70294;DHT22;74367;35.280;-77.632;2024-03-08T05:32:23;14.68;91.58
70294;DHT22;74367;35.280;-77.632;2024-03-08T05:34:50;14.59;91.19
70294;DHT22;74367;35.280;-77.632;2024-03-08T05:37:18;14.53;91.05
70294;DHT22;74367;35.280;-77.632;2024-03-08T05:39:46;14.51;91.26
70294;DHT22;74367;35.280;-77.632;2024-03-08T05:42:12;14.45;91.69
70294;DHT22;74367;35.280;-77.632;2024-03-08T05:44:38;14.45;91.14
70294;DHT22;74367;35.280;-77.632;2024-03-08T05:47:06;14.29;92.31
70294;DHT22;74367;35.280;-77.632;2024-03-08T05:49:32;14.24;91.64
70294;DHT22;74367;35.280;-77.632;2024-03-08T05:51:59;14.03;91.61
70294;DHT22;74367;35.280;-77.632;2024-03-08T05:54:25;14.03;91.62
70294;DHT22;74367;35.280;-77.632;2024-03-08T05:56:52;14.00;91.54
70294;DHT22;74367;35.280;-77.632;2024-03-08T05:59:20;13.91;92.96
70294;DHT22;74367;35.280;-77.632;2024-03-08T06:01:46;13.93;91.42
70294;DHT22;74367;35.280;-77.632;2024-03-08T06:04:12;13.97;93.20
70294;DHT22;74367;35.280;-77.632;2024-03-08T06:06:40;14.05;91.80
70294;DHT22;74367;35.280;-77.632;2024-03-08T06:09:06;13.88;92.75
70294;DHT22;74367;35.280;-77.632;2024-03-08T06:11:37;13.95;91.54
70294;DHT22;74367;35.280;-77.632;2024-03-08T06:14:03;14.01;91.47
70294;DHT22;74367;35.280;-77.632;2024-03-08T06:16:29;13.90;91.36
70294;DHT22;74367;35.280;-77.632;2024-03-08T06:18:59;14.08;91.12
70294;DHT22;74367;35.280;-77.632;2024-03-08T06:21:27;14.13;91.39
70294;DHT22;74367;35.280;-77.632;2024-03-08T06:23:54;14.22;92.44
70294;DHT22;74367;35.280;-77.632;2024-03-08T06:26:26;14.13;91.67
70294;DHT22;74367;35.280;-77.632;2024-03-08T06:28:54;14.10;92.56
70294;DHT22;74367;35.280;-77.632;2024-03-08T06:31:20;14.17;91.74
70294;DHT22;74367;35.280;-77.632;2024-03-08T06:33:47;14.20;92.80
70294;DHT22;74367;35.280;-77.632;2024-03-08T06:36:18;14.17;92.26
70294;DHT22;74367;35.280;-77.632;2024-03-08T06:38:47;14.10;91.94
70294;DHT22;74367;35.280;-77.632;2024-03-08T06:41:14;14.18;91.31
70294;DHT22;74367;35.280;-77.632;2024-03-08T06:43:44;14.14;91.22
70294;DHT22;74367;35.280;-77.632;2024-03-08T06:46:11;13.87;91.94
70294;DHT22;74367;35.280;-77.632;2024-03-08T06:48:39;13.93;91.78
70294;DHT22;74367;35.280;-77.632;2024-03-08T06:51:06;14.01;91.46
70294;DHT22;74367;35.280;-77.632;2024-03-08T06:53:32;13.59;92.00
70294;DHT22;74367;35.280;-77.632;2024-03-08T06:55:58;13.56;92.59
70294;DHT22;74367;35.280;-77.632;2024-03-08T06:58:24;13.55;91.92
70294;DHT22;74367;35.280;-77.632;2024-03-08T07:00:50;13.60;91.38
70294;DHT22;74367;35.280;-77.632;2024-03-08T07:03:18;13.63;92.08
70294;DHT22;74367;35.280;-77.632;2024-03-08T07:05:44;13.77;91.90
70294;DHT22;74367;35.280;-77.632;2024-03-08T07:08:10;13.73;91.34
70294;DHT22;74367;35.280;-77.632;2024-03-08T07:10:40;13.50;91.63
70294;DHT22;74367;35.280;-77.632;2024-03-08T07:13:10;13.47;93.19
70294;DHT22;74367;35.280;-77.632;2024-03-08T07:15:36;13.49;91.68
70294;DHT22;74367;35.280;-77.632;2024-03-08T07:18:02;13.25;91.83
70294;DHT22;74367;35.280;-77.632;2024-03-08T07:20:29;13.39;91.87
70294;DHT22;74367;35.280;-77.632;2024-03-08T07:22:55;13.43;91.69
70294;DHT22;74367;35.280;-77.632;2024-03-08T07:25:21;13.30;91.61
70294;DHT22;74367;35.280;-77.632;2024-03-08T07:27:51;13.40;92.38
70294;DHT22;74367;35.280;-77.632;2024-03-08T07:30:22;13.47;92.15
70294;DHT22;74367;35.280;-77.632;2024-03-08T07:33:07;13.34;91.60
70294;DHT22;74367;35.280;-77.632;2024-03-08T07:35:38;13.42;91.71
70294;DHT22;74367;35.280;-77.632;2024-03-08T07:38:05;13.39;92.64
70294;DHT22;74367;35.280;-77.632;2024-03-08T07:40:34;13.20;91.65
70294;DHT22;74367;35.280;-77.632;2024-03-08T07:43:00;13.43;92.25
70294;DHT22;74367;35.280;-77.632;2024-03-08T07:45:27;13.39;93.13
70294;DHT22;74367;35.280;-77.632;2024-03-08T07:47:53;13.27;91.47
70294;DHT22;74367;35.280;-77.632;2024-03-08T07:50:19;13.38;91.56
70294;DHT22;74367;35.280;-77.632;2024-03-08T07:52:48;13.35;92.49
70294;DHT22;74367;35.280;-77.632;2024-03-08T07:55:14;13.43;91.34
70294;DHT22;74367;35.280;-77.632;2024-03-08T07:57:40;13.52;92.33
70294;DHT22;74367;35.280;-77.632;2024-03-08T08:00:08;13.40;90.83
70294;DHT22;74367;35.280;-77.632;2024-03-08T08:02:36;13.23;90.09
70294;DHT22;74367;35.280;-77.632;2024-03-08T08:05:02;13.38;91.04
70294;DHT22;74367;35.280;-77.632;2024-03-08T08:07:29;13.32;90.30
70294;DHT22;74367;35.280;-77.632;2024-03-08T08:09:55;13.39;90.38
70294;DHT22;74367;35.280;-77.632;2024-03-08T08:12:21;13.26;90.16
70294;DHT22;74367;35.280;-77.632;2024-03-08T08:14:47;13.23;90.77
70294;DHT22;74367;35.280;-77.632;2024-03-08T08:17:13;13.19;91.07
70294;DHT22;74367;35.280;-77.632;2024-03-08T08:19:41;13.29;91.34
70294;DHT22;74367;35.280;-77.632;2024-03-08T08:22:07;13.22;90.16
70294;DHT22;74367;35.280;-77.632;2024-03-08T08:24:34;13.22;90.69
70294;DHT22;74367;35.280;-77.632;2024-03-08T08:27:03;13.20;91.36
70294;DHT22;74367;35.280;-77.632;2024-03-08T08:29:29;13.23;91.30
70294;DHT22;74367;35.280;-77.632;2024-03-08T08:31:58;13.20;90.34
70294;DHT22;74367;35.280;-77.632;2024-03-08T08:34:25;13.02;89.11
70294;DHT22;74367;35.280;-77.632;2024-03-08T08:36:52;12.99;91.67
70294;DHT22;74367;35.280;-77.632;2024-03-08T08:39:18;13.06;90.48
70294;DHT22;74367;35.280;-77.632;2024-03-08T08:41:45;13.18;91.28
70294;DHT22;74367;35.280;-77.632;2024-03-08T08:44:10;13.14;90.02
70294;DHT22;74367;35.280;-77.632;2024-03-08T08:46:38;13.18;90.44
70294;DHT22;74367;35.280;-77.632;2024-03-08T08:49:05;12.92;88.71
70294;DHT22;74367;35.280;-77.632;2024-03-08T08:51:32;12.94;91.47
70294;DHT22;74367;35.280;-77.632;2024-03-08T08:54:00;12.81;91.30
70294;DHT22;74367;35.280;-77.632;2024-03-08T08:56:26;12.75;91.02
70294;DHT22;74367;35.280;-77.632;2024-03-08T08:58:54;12.83;91.79
70294;DHT22;74367;35.280;-77.632;2024-03-08T09:01:20;12.94;91.85
70294;DHT22;74367;35.280;-77.632;2024-03-08T09:03:47;12.88;89.35
70294;DHT22;74367;35.280;-77.632;2024-03-08T09:06:13;12.67;91.56
70294;DHT22;74367;35.280;-77.632;2024-03-08T09:08:39;12.81;92.73
70294;DHT22;74367;35.280;-77.632;2024-03-08T09:11:05;12.95;92.06
70294;DHT22;74367;35.280;-77.632;2024-03-08T09:13:32;13.08;91.57
70294;DHT22;74367;35.280;-77.632;2024-03-08T09:15:59;12.89;90.30
70294;DHT22;74367;35.280;-77.632;2024-03-08T09:18:25;12.95;91.85
70294;DHT22;74367;35.280;-77.632;2024-03-08T09:20:51;12.99;90.59
70294;DHT22;74367;35.280;-77.632;2024-03-08T09:23:22;12.92;91.38
70294;DHT22;74367;35.280;-77.632;2024-03-08T09:25:48;12.71;90.62
70294;DHT22;74367;35.280;-77.632;2024-03-08T09:28:14;12.37;90.97
70294;DHT22;74367;35.280;-77.632;2024-03-08T09:30:41;12.29;91.91
70294;DHT22;74367;35.280;-77.632;2024-03-08T09:33:08;12.30;92.62
70294;DHT22;74367;35.280;-77.632;2024-03-08T09:35:35;12.36;92.90
70294;DHT22;74367;35.280;-77.632;2024-03-08T09:38:01;12.17;92.18
70294;DHT22;74367;35.280;-77.632;2024-03-08T09:40:28;12.29;92.60
70294;DHT22;74367;35.280;-77.632;2024-03-08T09:42:55;12.37;93.47
70294;DHT22;74367;35.280;-77.632;2024-03-08T09:45:21;12.26;92.29
70294;DHT22;74367;35.280;-77.632;2024-03-08T09:47:48;12.13;93.05
70294;DHT22;74367;35.280;-77.632;2024-03-08T09:50:17;12.10;92.51
70294;DHT22;74367;35.280;-77.632;2024-03-08T09:52:46;12.33;94.06
70294;DHT22;74367;35.280;-77.632;2024-03-08T09:55:13;12.27;92.86
70294;DHT22;74367;35.280;-77.632;2024-03-08T09:57:43;11.98;92.62
70294;DHT22;74367;35.280;-77.632;2024-03-08T10:00:29;12.08;94.33
70294;DHT22;74367;35.280;-77.632;2024-03-08T10:03:01;12.43;93.55
70294;DHT22;74367;35.280;-77.632;2024-03-08T10:05:27;12.10;93.02
70294;DHT22;74367;35.280;-77.632;2024-03-08T10:07:53;12.19;93.20
70294;DHT22;74367;35.280;-77.632;2024-03-08T10:10:20;12.27;94.25
70294;DHT22;74367;35.280;-77.632;2024-03-08T10:12:48;12.36;94.19
70294;DHT22;74367;35.280;-77.632;2024-03-08T10:15:16;12.41;94.01
70294;DHT22;74367;35.280;-77.632;2024-03-08T10:17:42;12.22;93.12
70294;DHT22;74367;35.280;-77.632;2024-03-08T10:20:19;11.85;93.34
70294;DHT22;74367;35.280;-77.632;2024-03-08T10:22:45;12.06;94.60
70294;DHT22;74367;35.280;-77.632;2024-03-08T10:25:12;12.10;95.16
70294;DHT22;74367;35.280;-77.632;2024-03-08T10:27:42;12.53;94.43
70294;DHT22;74367;35.280;-77.632;2024-03-08T10:30:14;12.32;93.45
70294;DHT22;74367;35.280;-77.632;2024-03-08T10:32:41;12.15;94.10
70294;DHT22;74367;35.280;-77.632;2024-03-08T10:35:10;12.20;94.47
70294;DHT22;74367;35.280;-77.632;2024-03-08T10:37:48;12.50;92.97
70294;DHT22;74367;35.280;-77.632;2024-03-08T10:40:18;12.30;92.26
70294;DHT22;74367;35.280;-77.632;2024-03-08T10:43:05;12.12;93.88
70294;DHT22;74367;35.280;-77.632;2024-03-08T10:45:37;12.37;92.61
70294;DHT22;74367;35.280;-77.632;2024-03-08T10:50:49;12.41;93.08
70294;DHT22;74367;35.280;-77.632;2024-03-08T10:53:18;12.54;92.78
70294;DHT22;74367;35.280;-77.632;2024-03-08T10:55:47;12.34;92.55
70294;DHT22;74367;35.280;-77.632;2024-03-08T10:58:16;12.23;93.05
70294;DHT22;74367;35.280;-77.632;2024-03-08T11:00:42;12.36;93.19
70294;DHT22;74367;35.280;-77.632;2024-03-08T11:06:04;12.54;92.58
70294;DHT22;74367;35.280;-77.632;2024-03-08T11:08:31;12.63;93.31
70294;DHT22;74367;35.280;-77.632;2024-03-08T11:10:57;12.40;92.89
70294;DHT22;74367;35.280;-77.632;2024-03-08T11:13:43;12.34;93.40
70294;DHT22;74367;35.280;-77.632;2024-03-08T11:16:10;12.47;92.26
70294;DHT22;74367;35.280;-77.632;2024-03-08T11:18:37;12.56;91.47
70294;DHT22;74367;35.280;-77.632;2024-03-08T11:21:09;12.17;91.08
70294;DHT22;74367;35.280;-77.632;2024-03-08T11:23:38;12.08;91.87
70294;DHT22;74367;35.280;-77.632;2024-03-08T11:26:21;12.27;92.28
70294;DHT22;74367;35.280;-77.632;2024-03-08T11:28:49;12.25;92.82
70294;DHT22;74367;35.280;-77.632;2024-03-08T11:31:23;12.38;92.14
70294;DHT22;74367;35.280;-77.632;2024-03-08T11:33:50;12.34;92.04
70294;DHT22;74367;35.280;-77.632;2024-03-08T11:36:23;12.40;91.68
70294;DHT22;74367;35.280;-77.632;2024-03-08T11:38:51;12.34;91.48
70294;DHT22;74367;35.280;-77.632;2024-03-08T11:41:23;12.40;91.20
70294;DHT22;74367;35.280;-77.632;2024-03-08T11:44:01;12.27;91.76
70294;DHT22;74367;35.280;-77.632;2024-03-08T11:46:27;12.32;91.23
70294;DHT22;74367;35.280;-77.632;2024-03-08T11:48:54;12.41;92.95
70294;DHT22;74367;35.280;-77.632;2024-03-08T11:51:23;12.44;91.45
70294;DHT22;74367;35.280;-77.632;2024-03-08T11:53:49;12.36;91.18
70294;DHT22;74367;35.280;-77.632;2024-03-08T11:56:16;12.26;92.48
70294;DHT22;74367;35.280;-77.632;2024-03-08T11:58:47;12.40;92.72
70294;DHT22;74367;35.280;-77.632;2024-03-08T12:01:18;12.34;91.65
70294;DHT22;74367;35.280;-77.632;2024-03-08T12:03:44;12.38;92.13
70294;DHT22;74367;35.280;-77.632;2024-03-08T12:06:17;12.34;91.51
70294;DHT22;74367;35.280;-77.632;2024-03-08T12:08:45;12.43;91.62
70294;DHT22;74367;35.280;-77.632;2024-03-08T12:11:14;12.44;90.49
70294;DHT22;74367;35.280;-77.632;2024-03-08T12:13:41;12.47;90.99
70294;DHT22;74367;35.280;-77.632;2024-03-08T12:16:09;12.57;91.23
70294;DHT22;74367;35.280;-77.632;2024-03-08T12:18:37;12.58;93.43
70294;DHT22;74367;35.280;-77.632;2024-03-08T12:21:07;12.58;93.83
70294;DHT22;74367;35.280;-77.632;2024-03-08T12:23:36;12.50;92.02
70294;DHT22;74367;35.280;-77.632;2024-03-08T12:26:13;12.36;90.82
70294;DHT22;74367;35.280;-77.632;2024-03-08T12:28:40;12.46;92.42
70294;DHT22;74367;35.280;-77.632;2024-03-08T12:31:11;12.37;91.55
70294;DHT22;74367;35.280;-77.632;2024-03-08T12:33:53;12.30;92.28
70294;DHT22;74367;35.280;-77.632;2024-03-08T12:36:20;12.33;92.66
70294;DHT22;74367;35.280;-77.632;2024-03-08T12:38:50;12.44;93.24
70294;DHT22;74367;35.280;-77.632;2024-03-08T12:41:17;12.33;93.52
70294;DHT22;74367;35.280;-77.632;2024-03-08T12:43:47;12.32;92.42
70294;DHT22;74367;35.280;-77.632;2024-03-08T12:46:22;12.33;92.05
70294;DHT22;74367;35.280;-77.632;2024-03-08T12:48:51;12.48;91.66
70294;DHT22;74367;35.280;-77.632;2024-03-08T12:51:20;12.65;92.38
70294;DHT22;74367;35.280;-77.632;2024-03-08T12:53:47;12.83;93.35
70294;DHT22;74367;35.280;-77.632;2024-03-08T12:56:20;12.74;92.80
70294;DHT22;74367;35.280;-77.632;2024-03-08T12:58:54;12.84;93.28
70294;DHT22;74367;35.280;-77.632;2024-03-08T13:01:20;12.50;92.21
70294;DHT22;74367;35.280;-77.632;2024-03-08T13:03:46;12.36;92.73
70294;DHT22;74367;35.280;-77.632;2024-03-08T13:06:12;12.20;92.92
70294;DHT22;74367;35.280;-77.632;2024-03-08T13:08:38;12.47;93.78
70294;DHT22;74367;35.280;-77.632;2024-03-08T13:11:07;12.77;92.76
70294;DHT22;74367;35.280;-77.632;2024-03-08T13:13:37;12.69;93.75
70294;DHT22;74367;35.280;-77.632;2024-03-08T13:16:06;12.60;92.06
70294;DHT22;74367;35.280;-77.632;2024-03-08T13:18:35;12.88;92.48
70294;DHT22;74367;35.280;-77.632;2024-03-08T13:21:02;12.38;91.86
70294;DHT22;74367;35.280;-77.632;2024-03-08T13:23:35;12.30;92.26
70294;DHT22;74367;35.280;-77.632;2024-03-08T13:26:12;12.37;91.51
70294;DHT22;74367;35.280;-77.632;2024-03-08T13:28:50;12.50;91.85
70294;DHT22;74367;35.280;-77.632;2024-03-08T13:31:20;12.80;92.42
70294;DHT22;74367;35.280;-77.632;2024-03-08T13:33:47;12.84;91.92
70294;DHT22;74367;35.280;-77.632;2024-03-08T13:36:13;12.88;91.55
70294;DHT22;74367;35.280;-77.632;2024-03-08T13:38:42;12.77;89.94
70294;DHT22;74367;35.280;-77.632;2024-03-08T13:41:10;12.99;91.63
70294;DHT22;74367;35.280;-77.632;2024-03-08T13:43:37;12.91;90.43
70294;DHT22;74367;35.280;-77.632;2024-03-08T13:46:04;13.01;90.15
70294;DHT22;74367;35.280;-77.632;2024-03-08T13:48:30;13.42;91.83
70294;DHT22;74367;35.280;-77.632;2024-03-08T13:50:57;13.19;89.89
70294;DHT22;74367;35.280;-77.632;2024-03-08T13:53:23;13.43;88.87
70294;DHT22;74367;35.280;-77.632;2024-03-08T13:55:50;13.53;88.79
70294;DHT22;74367;35.280;-77.632;2024-03-08T13:58:16;13.26;87.61
70294;DHT22;74367;35.280;-77.632;2024-03-08T14:00:42;13.52;88.15
70294;DHT22;74367;35.280;-77.632;2024-03-08T14:03:11;13.70;86.63
70294;DHT22;74367;35.280;-77.632;2024-03-08T14:05:41;13.40;86.16
70294;DHT22;74367;35.280;-77.632;2024-03-08T14:08:08;13.42;87.32
70294;DHT22;74367;35.280;-77.632;2024-03-08T14:10:35;13.25;87.53
70294;DHT22;74367;35.280;-77.632;2024-03-08T14:13:03;13.22;87.10
70294;DHT22;74367;35.280;-77.632;2024-03-08T14:15:33;13.27;85.17
70294;DHT22;74367;35.280;-77.632;2024-03-08T14:18:07;13.20;88.25
70294;DHT22;74367;35.280;-77.632;2024-03-08T14:20:33;13.63;87.72
70294;DHT22;74367;35.280;-77.632;2024-03-08T14:22:59;13.52;87.62
70294;DHT22;74367;35.280;-77.632;2024-03-08T14:25:25;13.29;86.33
70294;DHT22;74367;35.280;-77.632;2024-03-08T14:27:53;13.46;86.25
70294;DHT22;74367;35.280;-77.632;2024-03-08T14:30:20;13.90;86.19
70294;DHT22;74367;35.280;-77.632;2024-03-08T14:33:00;14.15;81.91
70294;DHT22;74367;35.280;-77.632;2024-03-08T14:35:26;14.15;85.07
70294;DHT22;74367;35.280;-77.632;2024-03-08T14:37:53;13.87;83.08
70294;DHT22;74367;35.280;-77.632;2024-03-08T14:40:19;13.62;82.23
70294;DHT22;74367;35.280;-77.632;2024-03-08T14:42:48;13.97;85.12
70294;DHT22;74367;35.280;-77.632;2024-03-08T14:45:18;14.03;83.05
70294;DHT22;74367;35.280;-77.632;2024-03-08T14:47:47;14.29;83.05
70294;DHT22;74367;35.280;-77.632;2024-03-08T14:50:21;14.07;83.24
70294;DHT22;74367;35.280;-77.632;2024-03-08T14:52:48;13.93;82.41
70294;DHT22;74367;35.280;-77.632;2024-03-08T14:55:15;13.90;82.42
70294;DHT22;74367;35.280;-77.632;2024-03-08T14:57:42;13.74;81.48
70294;DHT22;74367;35.280;-77.632;2024-03-08T15:00:12;14.36;80.93
70294;DHT22;74367;35.280;-77.632;2024-03-08T15:02:55;14.55;83.39
70294;DHT22;74367;35.280;-77.632;2024-03-08T15:05:24;14.66;82.30
70294;DHT22;74367;35.280;-77.632;2024-03-08T15:07:53;14.52;82.11
70294;DHT22;74367;35.280;-77.632;2024-03-08T15:10:20;14.76;84.84
70294;DHT22;74367;35.280;-77.632;2024-03-08T15:12:50;14.76;82.32
70294;DHT22;74367;35.280;-77.632;2024-03-08T15:15:21;14.62;81.05